Time;durP1;ratioP1;P1;durP2;ratioP2;P2;SDS_P1;SDS_P2;PMS_P1;PMS_P2;Temp;Humidity;BMP_temperature;BMP_pressure;BME280_temperature;BME280_humidity;BME280_pressure;Samples;Min_cycle;Max_cycle;Signal;HPM_P1;HPM_P2
2023/01/26 00:07:01;;;;;;;;;;;;;;;0.58;76.29;98548.13;5227424;23;20377;-72
2023/01/26 00:09:30;;;;;;;;;;;;;;;0.55;76.57;98550.47;4897900;29;19927;-70
2023/01/26 00:11:58;;;;;;;;;;;;;;;0.22;78.01;98541.13;4899803;29;19942;-71
2023/01/26 00:14:26;;;;;;;;;;;;;;;0.48;76.80;98547.88;4896331;29;19927;-71
2023/01/26 00:16:54;;;;;;;;;;;;;;;0.17;77.68;98541.00;4909187;29;19927;-70
2023/01/26 00:19:22;;;;;;;;;;;;;;;0.38;77.54;98535.09;4914894;29;20022;-70
2023/01/26 00:21:50;;;;;;;;;;;;;;;0.33;77.56;98526.97;4912147;29;19927;-71
2023/01/26 00:24:20;;;;;;;;;;;;;;;0.40;77.73;98524.19;4901882;29;20030;-71
2023/01/26 00:27:14;;;;;;;;;;;;;;;0.40;77.39;98521.50;4910574;29;20633;-71
2023/01/26 00:29:42;;;;;;;;;;;;;;;0.27;78.19;98514.53;4903035;29;19986;-71
2023/01/26 00:32:10;;;;;;;;;;;;;;;0.45;78.43;98500.25;4893952;29;20288;-71
2023/01/26 00:34:38;;;;;;;;;;;;;;;0.45;78.46;98495.72;4900380;29;19931;-71
2023/01/26 00:37:06;;;;;;;;;;;;;;;0.61;77.90;98482.69;4912998;29;20033;-71
2023/01/26 00:39:38;;;;;;;;;;;;;;;0.67;76.80;98479.91;4900371;29;19934;-71
2023/01/26 00:42:05;;;;;;;;;;;;;;;0.27;78.05;98482.47;4912355;29;19927;-70
2023/01/26 00:44:34;;;;;;;;;;;;;;;0.15;79.19;98478.94;4897367;29;19981;-70
2023/01/26 00:47:02;;;;;;;;;;;;;;;0.33;79.13;98486.88;4914570;29;19930;-72
2023/01/26 00:49:34;;;;;;;;;;;;;;;0.55;78.17;98470.25;4911895;29;19927;-73
2023/01/26 00:57:50;;;;;;;;;;;;;;;0.85;76.57;98462.91;4913901;29;19963;-72
2023/01/26 01:00:19;;;;;;;;;;;;;;;0.84;76.46;98463.13;4914848;29;19927;-76
2023/01/26 01:02:47;;;;;;;;;;;;;;;0.87;76.10;98451.97;4916287;29;20488;-72
2023/01/26 01:05:18;;;;;;;;;;;;;;;0.64;76.87;98452.81;4917818;29;19927;-72
2023/01/26 01:07:46;;;;;;;;;;;;;;;0.77;76.74;98449.91;4917496;29;20346;-72
2023/01/26 01:10:15;;;;;;;;;;;;;;;0.24;78.16;98438.28;4900213;29;20379;-72
2023/01/26 01:12:43;;;;;;;;;;;;;;;0.29;78.09;98439.47;4900470;29;19931;-72
2023/01/26 01:15:12;;;;;;;;;;;;;;;0.53;77.81;98446.41;4917138;29;20142;-72
2023/01/26 01:17:40;;;;;;;;;;;;;;;0.67;77.48;98434.44;4899370;29;19930;-72
2023/01/26 01:20:10;;;;;;;;;;;;;;;0.64;77.06;98444.78;4904944;29;19934;-72
2023/01/26 01:22:40;;;;;;;;;;;;;;;0.64;77.25;98434.94;4914402;29;19963;-72
2023/01/26 01:25:09;;;;;;;;;;;;;;;0.24;78.45;98430.28;4900174;29;19927;-72
2023/01/26 01:27:37;;;;;;;;;;;;;;;0.24;78.60;98430.28;4898110;29;19927;-72
2023/01/26 01:30:06;;;;;;;;;;;;;;;0.28;79.10;98429.81;4916087;29;19935;-71
2023/01/26 01:32:38;;;;;;;;;;;;;;;0.53;77.92;98430.38;4915534;29;19989;-73
2023/01/26 01:35:07;;;;;;;;;;;;;;;0.50;77.81;98429.00;4899393;29;19934;-73
2023/01/26 01:37:36;;;;;;;;;;;;;;;0.72;76.92;98421.19;4904829;29;19933;-72
2023/01/26 01:40:04;;;;;;;;;;;;;;;0.77;76.79;98423.16;4922440;29;20355;-72
2023/01/26 01:42:33;;;;;;;;;;;;;;;0.77;77.13;98421.28;4917289;29;19938;-73
2023/01/26 01:45:20;;;;;;;;;;;;;;;0.81;76.25;98426.19;4915699;29;19939;-72
2023/01/26 01:47:50;;;;;;;;;;;;;;;0.61;77.19;98423.88;4904436;29;19931;-72
2023/01/26 01:50:18;;;;;;;;;;;;;;;0.48;77.85;98419.56;4895030;29;19938;-72
2023/01/26 01:52:46;;;;;;;;;;;;;;;0.61;77.50;98418.53;4922992;29;19967;-73
2023/01/26 01:58:06;;;;;;;;;;;;;;;0.54;76.99;98412.50;4895468;29;19983;-73
2023/01/26 02:12:19;;;;;;;;;;;;;;;0.69;77.37;98416.31;5110544;23;20158;-73
2023/01/26 02:14:48;;;;;;;;;;;;;;;0.72;76.85;98413.16;4938216;29;20296;-71
2023/01/26 02:17:16;;;;;;;;;;;;;;;0.71;76.93;98410.72;4929097;29;19969;-72
2023/01/26 02:19:46;;;;;;;;;;;;;;;0.79;76.96;98411.16;4924447;29;20387;-75
2023/01/26 02:22:17;;;;;;;;;;;;;;;0.78;76.83;98404.19;4906309;29;19938;-74
2023/01/26 02:24:45;;;;;;;;;;;;;;;0.68;76.96;98414.66;4915821;29;19930;-74
2023/01/26 02:27:15;;;;;;;;;;;;;;;0.67;77.14;98412.25;4914686;29;19933;-77
2023/01/26 02:29:44;;;;;;;;;;;;;;;0.57;77.24;98412.00;4909112;29;19927;-76
2023/01/26 02:32:12;;;;;;;;;;;;;;;0.49;77.81;98406.00;4911045;29;19930;-72
2023/01/26 02:34:39;;;;;;;;;;;;;;;0.14;78.54;98399.81;4913156;29;19934;-72
2023/01/26 02:37:12;;;;;;;;;;;;;;;0.32;78.59;98394.38;4917009;29;19996;-76
2023/01/26 02:39:43;;;;;;;;;;;;;;;0.20;79.06;98394.38;4915349;29;19927;-77
2023/01/26 02:45:08;;;;;;;;;;;;;;;0.38;78.83;98393.44;4943046;29;19927;-81
2023/01/26 02:47:36;;;;;;;;;;;;;;;0.45;78.19;98380.75;4959439;28;19911;-81
2023/01/26 02:50:04;;;;;;;;;;;;;;;0.43;78.24;98382.06;4945798;29;19954;-81
2023/01/26 02:52:33;;;;;;;;;;;;;;;0.26;79.13;98379.25;4925553;29;19927;-81
2023/01/26 02:58:09;;;;;;;;;;;;;;;0.33;78.97;98379.16;4910940;29;19927;-73
2023/01/26 03:00:39;;;;;;;;;;;;;;;0.34;78.85;98376.25;4927543;29;19982;-72
2023/01/26 03:03:11;;;;;;;;;;;;;;;0.31;79.22;98370.53;4919180;29;20439;-72
2023/01/26 03:17:39;;;;;;;;;;;;;;;0.62;78.32;98361.31;5002915;23;19927;-79
2023/01/26 03:28:34;;;;;;;;;;;;;;;0.34;78.98;98346.84;4939341;29;19927;-71
2023/01/26 03:31:27;;;;;;;;;;;;;;;0.44;78.80;98347.06;4913372;29;19982;-70
2023/01/26 03:33:56;;;;;;;;;;;;;;;0.38;78.82;98344.53;4931558;29;19927;-70
2023/01/26 04:08:21;;;;;;;;;;;;;;;0.50;77.89;98338.09;4919421;29;19927;-76
2023/01/26 04:10:55;;;;;;;;;;;;;;;0.52;78.43;98338.66;4918885;29;19927;-76
2023/01/26 04:24:55;;;;;;;;;;;;;;;0.54;78.19;98332.28;4919229;29;20398;-81
2023/01/26 04:27:24;;;;;;;;;;;;;;;0.46;78.46;98330.78;4934168;29;19927;-80
2023/01/26 04:29:52;;;;;;;;;;;;;;;0.63;77.90;98341.56;4918037;29;19939;-80
2023/01/26 04:32:20;;;;;;;;;;;;;;;0.60;77.95;98340.19;4918828;29;19927;-80
2023/01/26 04:34:48;;;;;;;;;;;;;;;0.51;78.03;98341.59;4934562;29;20203;-81
2023/01/26 04:37:21;;;;;;;;;;;;;;;0.51;77.66;98338.91;4918061;29;19951;-74
2023/01/26 04:39:51;;;;;;;;;;;;;;;0.43;78.33;98337.44;4923161;29;20288;-74
2023/01/26 04:45:38;;;;;;;;;;;;;;;0.39;77.92;98335.47;5979417;23;19922;31
2023/01/26 04:51:02;;;;;;;;;;;;;;;0.43;78.54;98332.09;4858537;29;19928;-74
2023/01/26 04:53:31;;;;;;;;;;;;;;;0.44;78.25;98328.34;4857891;29;19928;-73
2023/01/26 04:58:52;;;;;;;;;;;;;;;0.32;78.59;98324.91;4874491;29;19957;-74
2023/01/26 05:01:21;;;;;;;;;;;;;;;0.36;78.33;98330.56;4858502;29;20352;-74
2023/01/26 05:03:50;;;;;;;;;;;;;;;0.39;78.17;98328.25;4873052;29;19932;-74
2023/01/26 05:06:18;;;;;;;;;;;;;;;0.44;78.05;98325.69;4853388;29;19935;-73
2023/01/26 05:09:14;;;;;;;;;;;;;;;0.35;78.16;98316.41;4858376;29;20881;-73
2023/01/26 05:11:44;;;;;;;;;;;;;;;0.48;77.97;98318.81;4881259;29;19928;-73
2023/01/26 05:14:30;;;;;;;;;;;;;;;0.47;77.84;98327.88;4873940;29;19932;-74
2023/01/26 05:17:20;;;;;;;;;;;;;;;0.54;77.12;98329.63;4873696;29;20452;-73
2023/01/26 05:19:58;;;;;;;;;;;;;;;0.22;78.19;98324.69;4858366;29;19928;-72
2023/01/26 05:22:52;;;;;;;;;;;;;;;0.17;78.95;98333.41;4842162;29;19928;-73
2023/01/26 05:25:32;;;;;;;;;;;;;;;0.26;78.35;98325.81;4859312;29;20412;-75
2023/01/26 05:28:04;;;;;;;;;;;;;;;0.38;78.56;98329.31;4873492;29;20396;-76
2023/01/26 05:30:33;;;;;;;;;;;;;;;0.32;78.13;98330.25;4846485;29;19932;-77
2023/01/26 05:36:03;;;;;;;;;;;;;;;0.62;77.84;98338.06;5735613;23;19959;-71
2023/01/26 05:38:35;;;;;;;;;;;;;;;0.55;77.77;98337.41;4901959;29;19932;-72
2023/01/26 05:41:03;;;;;;;;;;;;;;;0.55;78.14;98334.72;4890938;29;19928;-72
2023/01/26 05:43:39;;;;;;;;;;;;;;;0.61;77.75;98341.00;4879577;29;19927;-73
2023/01/26 05:46:19;;;;;;;;;;;;;;;0.69;77.42;98329.91;4881677;29;20010;-72
2023/01/26 05:48:47;;;;;;;;;;;;;;;0.60;77.17;98334.03;4874118;29;19928;-72
2023/01/26 05:51:42;;;;;;;;;;;;;;;0.66;77.22;98339.22;4890461;29;19927;-74
2023/01/26 05:54:10;;;;;;;;;;;;;;;0.70;77.04;98336.91;4864084;29;19939;-74
2023/01/26 05:56:38;;;;;;;;;;;;;;;0.68;77.06;98337.13;4902678;29;19931;-80
2023/01/26 05:59:07;;;;;;;;;;;;;;;0.63;77.94;98341.56;4893950;29;19963;-80
2023/01/26 06:01:36;;;;;;;;;;;;;;;0.65;77.96;98347.50;4882394;29;19942;-72
2023/01/26 06:04:06;;;;;;;;;;;;;;;0.66;77.49;98343.75;4904240;29;19975;-71
2023/01/26 06:06:42;;;;;;;;;;;;;;;0.61;77.72;98341.00;4892772;29;19995;-71
2023/01/26 06:09:22;;;;;;;;;;;;;;;0.68;77.11;98331.78;4897486;29;19935;-71
2023/01/26 06:15:29;;;;;;;;;;;;;;;0.72;76.43;98332.13;4846732;29;19929;-78
2023/01/26 06:18:03;;;;;;;;;;;;;;;0.68;76.26;98328.28;4839722;29;19928;-80
2023/01/26 06:20:31;;;;;;;;;;;;;;;0.54;77.32;98337.66;4860232;29;19935;-73
2023/01/26 06:23:02;;;;;;;;;;;;;;;0.59;76.84;98329.72;4838314;29;19929;-73
2023/01/26 06:25:33;;;;;;;;;;;;;;;0.50;77.32;98335.44;4839334;29;20045;-77
2023/01/26 06:28:02;;;;;;;;;;;;;;;0.60;77.55;98334.03;4841658;29;19928;-74
2023/01/26 06:30:31;;;;;;;;;;;;;;;0.63;77.27;98337.00;4841229;29;19933;-76
2023/01/26 06:33:05;;;;;;;;;;;;;;;0.66;77.15;98335.75;4839093;29;19935;-78
2023/01/26 06:35:36;;;;;;;;;;;;;;;0.75;77.28;98331.66;4830809;29;19932;-74
2023/01/26 06:38:14;;;;;;;;;;;;;;;0.70;77.24;98336.91;4837572;29;20317;-78
2023/01/26 06:40:43;;;;;;;;;;;;;;;0.69;76.87;98335.25;4826392;29;19924;-79
2023/01/26 06:43:17;;;;;;;;;;;;;;;0.63;77.07;98337.00;4986800;23;19914;-81
2023/01/26 06:46:10;;;;;;;;;;;;;;;0.67;77.27;98332.03;5004617;23;19919;-78
2023/01/26 06:48:39;;;;;;;;;;;;;;;0.65;77.29;98334.13;4879040;29;20165;-80
2023/01/26 06:51:30;;;;;;;;;;;;;;;0.67;77.27;98332.81;4905828;29;19964;-72
2023/01/26 06:53:59;;;;;;;;;;;;;;;0.41;77.91;98330.69;4881758;29;20010;-73
2023/01/26 06:56:37;;;;;;;;;;;;;;;0.40;77.96;98329.88;4885689;29;19928;-79
2023/01/26 06:59:24;;;;;;;;;;;;;;;0.39;78.24;98330.91;4883987;29;20059;-72
2023/01/26 07:02:11;;;;;;;;;;;;;;;0.44;77.89;98328.34;4885010;29;20094;-71
2023/01/26 07:05:00;;;;;;;;;;;;;;;0.59;77.51;98332.41;4881202;29;20035;-80
2023/01/26 07:08:09;;;;;;;;;;;;;;;0.62;77.33;98324.69;4892460;29;19967;-79
2023/01/26 07:10:42;;;;;;;;;;;;;;;0.64;76.98;98327.13;4892139;29;19928;-71
2023/01/26 07:13:11;;;;;;;;;;;;;;;0.51;77.76;98329.03;4877377;29;19932;-71
2023/01/26 07:15:38;;;;;;;;;;;;;;;0.65;76.56;98334.13;4877566;29;19963;-79
2023/01/26 07:18:06;;;;;;;;;;;;;;;0.68;76.61;98333.63;4888145;29;19927;-79
2023/01/26 07:20:34;;;;;;;;;;;;;;;0.71;76.54;98325.97;4887537;29;19999;-76
2023/01/26 07:23:03;;;;;;;;;;;;;;;0.70;76.35;98327.03;4882546;29;19934;-75
2023/01/26 07:25:31;;;;;;;;;;;;;;;0.70;76.34;98332.38;4877112;29;19959;-72
2023/01/26 07:28:00;;;;;;;;;;;;;;;0.78;76.02;98326.63;4888877;29;19935;-71
2023/01/26 07:30:29;;;;;;;;;;;;;;;0.83;75.77;98330.47;4877823;29;20011;-78
2023/01/26 07:32:59;;;;;;;;;;;;;;;0.73;76.54;98339.09;4879497;29;19935;-80
2023/01/26 07:35:28;;;;;;;;;;;;;;;0.65;76.16;98329.59;4899659;29;19991;-79
2023/01/26 07:41:22;;;;;;;;;;;;;;;0.69;76.62;98324.56;4886814;29;19928;-80
2023/01/26 07:43:52;;;;;;;;;;;;;;;0.71;75.83;98327.81;4891269;29;19928;-80
2023/01/26 07:46:20;;;;;;;;;;;;;;;0.69;75.75;98329.91;4897106;29;19958;-73
2023/01/26 07:48:48;;;;;;;;;;;;;;;0.72;75.84;98324.09;4879774;29;20530;-73
2023/01/26 07:51:41;;;;;;;;;;;;;;;0.66;75.78;98319.69;4878626;29;20004;-72
2023/01/26 07:54:12;;;;;;;;;;;;;;;0.54;75.82;98321.59;4878038;29;19975;-72
2023/01/26 07:56:40;;;;;;;;;;;;;;;0.60;75.84;98324.13;4879626;29;19931;-73
2023/01/26 07:59:11;;;;;;;;;;;;;;;0.60;76.17;98321.47;4884468;29;19980;-73
2023/01/26 08:01:39;;;;;;;;;;;;;;;0.76;75.72;98315.38;4882440;29;20312;-73
2023/01/26 08:04:07;;;;;;;;;;;;;;;0.51;76.66;98318.34;4883135;29;19963;-73
2023/01/26 08:06:35;;;;;;;;;;;;;;;0.65;76.16;98318.09;4902760;29;19927;-80
2023/01/26 08:09:04;;;;;;;;;;;;;;;0.68;76.28;98317.59;4892042;29;19928;-78
2023/01/26 08:11:32;;;;;;;;;;;;;;;0.55;76.76;98326.69;4888388;29;19945;-79
2023/01/26 08:14:00;;;;;;;;;;;;;;;0.57;76.84;98318.44;5072150;23;19938;-78
2023/01/26 08:16:29;;;;;;;;;;;;;;;0.69;76.52;98325.41;4912227;29;20282;-73
2023/01/26 08:18:58;;;;;;;;;;;;;;;0.59;75.62;98327.06;4897192;29;19934;-73
2023/01/26 08:21:27;;;;;;;;;;;;;;;0.49;76.05;98327.66;4890767;29;20340;-72
2023/01/26 08:23:55;;;;;;;;;;;;;;;0.33;76.49;98318.50;4893384;29;19928;-72
2023/01/26 08:26:48;;;;;;;;;;;;;;;0.31;76.44;98317.09;4888394;29;20462;-72
2023/01/26 08:29:42;;;;;;;;;;;;;;;0.46;76.58;98320.91;4889954;29;19935;-72
2023/01/26 08:32:11;;;;;;;;;;;;;;;0.50;76.28;98316.72;4884498;29;19932;-78
2023/01/26 08:34:39;;;;;;;;;;;;;;;0.48;75.94;98316.16;4890817;29;20000;-78
2023/01/26 08:37:07;;;;;;;;;;;;;;;0.45;76.05;98313.13;4903404;29;20352;-74
2023/01/26 08:39:35;;;;;;;;;;;;;;;0.43;75.76;98315.22;4875005;29;20383;-73
2023/01/26 08:42:05;;;;;;;;;;;;;;;0.25;75.78;98311.63;4882174;29;19950;-72
2023/01/26 08:44:33;;;;;;;;;;;;;;;0.25;76.29;98314.31;4899629;29;19991;-72
2023/01/26 08:47:01;;;;;;;;;;;;;;;0.48;76.20;98320.66;4907054;29;19935;-78
2023/01/26 08:49:30;;;;;;;;;;;;;;;0.49;75.61;98322.31;4890979;29;19927;-78
2023/01/26 08:52:00;;;;;;;;;;;;;;;0.36;76.14;98322.56;4872121;29;19932;-71
2023/01/26 08:54:29;;;;;;;;;;;;;;;0.36;76.04;98315.34;4880133;29;19928;-71
2023/01/26 08:56:58;;;;;;;;;;;;;;;0.44;76.13;98315.00;4893522;29;19927;-72
2023/01/26 08:59:26;;;;;;;;;;;;;;;0.43;75.87;98317.91;4897498;29;19941;-72
2023/01/26 09:01:54;;;;;;;;;;;;;;;0.64;75.57;98314.59;4900979;29;19936;-72
2023/01/26 09:04:22;;;;;;;;;;;;;;;0.63;74.81;98312.13;4875064;29;19935;-72
2023/01/26 09:06:51;;;;;;;;;;;;;;;0.57;74.54;98326.47;4898827;29;19931;-70
2023/01/26 09:09:19;;;;;;;;;;;;;;;0.51;74.76;98306.84;4880226;29;20358;-71
2023/01/26 09:11:48;;;;;;;;;;;;;;;0.46;74.82;98320.09;4883902;29;19927;-70
2023/01/26 09:14:20;;;;;;;;;;;;;;;0.56;74.92;98309.59;4885190;29;19934;-70
2023/01/26 09:16:48;;;;;;;;;;;;;;;0.49;74.91;98319.63;4903215;29;20017;-72
2023/01/26 09:19:18;;;;;;;;;;;;;;;0.61;74.36;98325.75;4893089;29;19957;-74
2023/01/26 09:21:50;;;;;;;;;;;;;;;0.46;74.45;98320.09;4879106;29;19927;-73
2023/01/26 09:24:22;;;;;;;;;;;;;;;0.37;74.58;98316.97;4884882;29;19934;-73
2023/01/26 09:26:50;;;;;;;;;;;;;;;0.35;75.06;98327.09;4896388;29;19983;-74
2023/01/26 09:29:44;;;;;;;;;;;;;;;0.34;75.27;98333.47;4891858;29;19935;-73
2023/01/26 09:32:12;;;;;;;;;;;;;;;0.28;75.43;98323.75;4886477;29;19916;-78
2023/01/26 09:34:41;;;;;;;;;;;;;;;0.26;75.68;98334.63;4897500;29;20028;-79
2023/01/26 09:37:12;;;;;;;;;;;;;;;0.54;75.64;98326.94;4893325;29;19985;-72
2023/01/26 09:39:44;;;;;;;;;;;;;;;0.52;74.42;98335.19;4890521;29;19935;-73
2023/01/26 09:42:22;;;;;;;;;;;;;;;0.55;74.69;98336.59;4894122;29;20373;-72
2023/01/26 09:44:54;;;;;;;;;;;;;;;0.51;75.13;98334.38;4900225;29;20388;-74
2023/01/26 09:47:25;;;;;;;;;;;;;;;0.55;75.10;98332.06;4923549;23;20062;-58
2023/01/26 09:49:55;;;;;;;;;;;;;;;0.65;74.89;98337.59;4910556;29;19927;-58
2023/01/26 09:52:27;;;;;;;;;;;;;;;0.68;74.31;98333.63;4892477;29;20364;-58
2023/01/26 09:54:57;;;;;;;;;;;;;;;0.55;74.85;98333.91;4912432;29;19967;-58
2023/01/26 09:57:28;;;;;;;;;;;;;;;0.63;74.27;98341.56;4911831;29;20027;-58
2023/01/26 09:59:57;;;;;;;;;;;;;;;0.58;74.42;98330.75;4909593;29;19927;-58
2023/01/26 10:02:31;;;;;;;;;;;;;;;0.74;73.99;98332.69;4894114;29;19927;-58
2023/01/26 10:05:00;;;;;;;;;;;;;;;0.67;73.95;98332.03;4890239;29;20396;-57
2023/01/26 10:07:28;;;;;;;;;;;;;;;0.68;73.55;98336.31;4910880;29;19939;-59
2023/01/26 10:09:58;;;;;;;;;;;;;;;0.58;73.52;98328.06;4908879;29;19931;-57
2023/01/26 10:12:26;;;;;;;;;;;;;;;0.37;73.91;98327.66;4907556;29;19935;-57
2023/01/26 10:14:55;;;;;;;;;;;;;;;0.66;73.08;98328.53;4911315;29;20014;-58
2023/01/26 10:17:25;;;;;;;;;;;;;;;0.70;73.24;98336.91;4907444;29;20353;-57
2023/01/26 10:19:55;;;;;;;;;;;;;;;0.88;72.55;98334.03;4908892;29;19982;-57
2023/01/26 10:22:47;;;;;;;;;;;;;;;0.94;72.29;98330.41;4910959;29;19934;-57
2023/01/26 10:25:18;;;;;;;;;;;;;;;0.90;72.12;98323.91;4913529;29;19927;-57
2023/01/26 10:27:46;;;;;;;;;;;;;;;0.84;73.20;98324.88;4910105;29;19946;-57
2023/01/26 10:30:14;;;;;;;;;;;;;;;1.00;72.80;98326.78;4908266;29;21514;-57
2023/01/26 10:32:43;;;;;;;;;;;;;;;0.77;73.17;98332.22;4896850;29;19931;-57
2023/01/26 10:35:15;;;;;;;;;;;;;;;0.80;72.99;98323.75;4899480;29;19938;-57
2023/01/26 10:37:44;;;;;;;;;;;;;;;0.81;72.89;98327.22;4912326;29;20288;-57
2023/01/26 10:40:13;;;;;;;;;;;;;;;0.65;73.19;98323.44;4911708;29;19977;-57
2023/01/26 10:42:42;;;;;;;;;;;;;;;0.77;73.15;98324.19;4901070;29;19955;-57
2023/01/26 10:45:23;;;;;;;;;;;;;;;0.65;72.85;98313.53;4912214;29;19931;-57
2023/01/26 10:48:25;;;;;;;;;;;;;;;0.62;73.40;98315.88;4906702;29;19962;-57
2023/01/26 10:50:55;;;;;;;;;;;;;;;0.45;74.16;98313.13;4917591;29;19935;-57
2023/01/26 10:53:23;;;;;;;;;;;;;;;0.49;73.62;98303.59;4910281;29;19962;-58
2023/01/26 10:55:58;;;;;;;;;;;;;;;0.41;73.78;98303.94;4911364;29;19931;-58
2023/01/26 10:58:56;;;;;;;;;;;;;;;0.61;73.13;98299.03;4913949;29;19934;-57
2023/01/26 11:01:26;;;;;;;;;;;;;;;0.79;72.83;98298.00;4890040;29;19977;-58
2023/01/26 11:04:03;;;;;;;;;;;;;;;0.83;72.52;98295.69;4919195;29;19963;-57
2023/01/26 11:06:31;;;;;;;;;;;;;;;0.69;72.68;98301.34;4915367;29;19983;-57
2023/01/26 11:09:10;;;;;;;;;;;;;;;0.86;72.74;98300.56;4916037;29;20165;-58
2023/01/26 11:11:38;;;;;;;;;;;;;;;0.86;72.96;98298.69;4911426;29;20440;-59
2023/01/26 11:14:17;;;;;;;;;;;;;;;0.83;72.95;98293.00;4909893;29;19934;-60
2023/01/26 11:16:46;;;;;;;;;;;;;;;0.76;72.76;98293.16;4904248;29;20022;-57
2023/01/26 11:19:17;;;;;;;;;;;;;;;0.78;73.22;98291.06;4907569;29;19935;-57
2023/01/26 11:21:53;;;;;;;;;;;;;;;0.71;73.10;98288.53;4897228;29;20407;-58
2023/01/26 11:24:47;;;;;;;;;;;;;;;0.84;72.72;98278.59;4902198;29;19990;-59
2023/01/26 11:27:18;;;;;;;;;;;;;;;0.87;73.26;98278.94;4906470;29;19938;-58
2023/01/26 11:30:02;;;;;;;;;;;;;;;0.72;73.62;98275.97;4910100;29;20360;-60
2023/01/26 11:32:30;;;;;;;;;;;;;;;0.76;72.60;98274.44;4909478;29;19931;-58
2023/01/26 11:35:03;;;;;;;;;;;;;;;0.63;72.77;98267.50;4910605;29;19934;-58
2023/01/26 11:37:39;;;;;;;;;;;;;;;0.47;73.13;98273.59;4907962;29;19942;-58
2023/01/26 11:40:22;;;;;;;;;;;;;;;0.47;73.88;98274.41;4902238;29;19931;-57
2023/01/26 11:42:51;;;;;;;;;;;;;;;0.54;73.85;98271.63;4903760;29;19934;-58
2023/01/26 11:45:44;;;;;;;;;;;;;;;0.39;74.10;98269.44;4920290;29;19942;-58
2023/01/26 11:48:37;;;;;;;;;;;;;;;0.64;73.30;98262.97;4917530;29;19970;-58
2023/01/26 11:51:07;;;;;;;;;;;;;;;0.69;72.88;98255.03;4917165;29;19927;-58
2023/01/26 11:53:51;;;;;;;;;;;;;;;0.52;72.60;98244.28;4916868;29;20803;-58
2023/01/26 11:56:21;;;;;;;;;;;;;;;0.54;71.98;98247.56;4917312;29;19928;-58
2023/01/26 11:58:51;;;;;;;;;;;;;;;0.58;72.61;98246.00;4916062;29;20210;-58
2023/01/26 12:01:24;;;;;;;;;;;;;;;0.51;72.63;98243.47;4914310;29;19928;-58
2023/01/26 12:03:52;;;;;;;;;;;;;;;0.44;72.30;98242.81;4896215;29;19973;-58
2023/01/26 12:06:24;;;;;;;;;;;;;;;0.33;72.64;98251.69;4916083;29;19928;-57
2023/01/26 12:08:53;;;;;;;;;;;;;;;0.44;71.94;98248.16;4912746;29;19935;-58
2023/01/26 12:11:22;;;;;;;;;;;;;;;0.33;72.59;98245.53;4915885;29;19930;-58
2023/01/26 12:13:56;;;;;;;;;;;;;;;0.48;72.10;98237.78;4914555;29;19927;-58
2023/01/26 12:16:28;;;;;;;;;;;;;;;0.49;71.47;98239.44;4914394;29;20273;-57
2023/01/26 12:18:57;;;;;;;;;;;;;;;0.55;71.47;98233.13;4913675;29;19935;-58
2023/01/26 12:22:02;;;;;;;;;;;;;;;0.42;71.42;98236.88;4894251;29;19935;-58
2023/01/26 12:24:39;;;;;;;;;;;;;;;0.51;71.70;98227.44;4918490;29;19927;-58
2023/01/26 12:27:28;;;;;;;;;;;;;;;0.59;71.99;98231.63;4915574;29;19942;-61
2023/01/26 12:29:57;;;;;;;;;;;;;;;0.69;71.87;98228.28;4916059;29;19927;-57
2023/01/26 12:32:26;;;;;;;;;;;;;;;0.69;71.14;98228.28;4916547;29;19926;-58
2023/01/26 12:34:54;;;;;;;;;;;;;;;0.74;70.88;98225.72;4922130;29;20050;-57
2023/01/26 12:37:26;;;;;;;;;;;;;;;0.68;71.06;98215.97;4916679;29;19927;-58
2023/01/26 12:39:56;;;;;;;;;;;;;;;0.75;71.44;98212.13;4914179;29;19931;-58
2023/01/26 12:42:25;;;;;;;;;;;;;;;0.68;71.32;98208.75;4915217;29;20086;-58
2023/01/26 12:44:54;;;;;;;;;;;;;;;0.47;71.36;98204.91;4912024;29;19950;-58
2023/01/26 12:47:24;;;;;;;;;;;;;;;0.63;71.05;98203.31;4908912;29;19963;-58
2023/01/26 12:49:55;;;;;;;;;;;;;;;0.65;71.04;98200.44;4913047;29;20003;-58
2023/01/26 12:52:24;;;;;;;;;;;;;;;0.64;71.39;98196.94;4912316;29;19931;-58
2023/01/26 12:54:54;;;;;;;;;;;;;;;0.38;71.73;98200.19;4907795;29;20018;-58
2023/01/26 12:57:24;;;;;;;;;;;;;;;0.36;71.75;98196.94;4903735;29;20356;-58
2023/01/26 13:00:00;;;;;;;;;;;;;;;0.42;71.95;98194.13;4919163;29;19931;-57
2023/01/26 13:02:29;;;;;;;;;;;;;;;0.55;70.99;98202.91;4915414;29;19927;-58
2023/01/26 13:04:58;;;;;;;;;;;;;;;0.45;71.89;98195.50;4916098;29;20010;-58
2023/01/26 13:07:27;;;;;;;;;;;;;;;0.38;71.19;98190.31;4915539;29;19954;-58
2023/01/26 13:10:09;;;;;;;;;;;;;;;0.62;70.74;98192.88;4916675;29;20455;-57
2023/01/26 13:12:45;;;;;;;;;;;;;;;0.64;71.09;98193.44;4904814;29;19927;-57
2023/01/26 13:15:13;;;;;;;;;;;;;;;0.67;70.85;98192.97;4915682;29;19934;-57
2023/01/26 13:20:47;;;;;;;;;;;;;;;0.73;70.56;98187.47;4915684;29;19950;-57
2023/01/26 13:23:45;;;;;;;;;;;;;;;0.59;70.94;98190.69;4916614;29;19931;-57
2023/01/26 13:26:41;;;;;;;;;;;;;;;0.58;70.99;98189.06;4840101;29;20301;-59
2023/01/26 13:29:32;;;;;;;;;;;;;;;0.57;70.88;98198.94;4866986;29;19927;-57
2023/01/26 13:32:23;;;;;;;;;;;;;;;0.63;70.73;98199.84;4878284;29;19956;-57
2023/01/26 13:34:53;;;;;;;;;;;;;;;0.70;70.52;98192.50;4908127;29;19928;-58
2023/01/26 13:37:23;;;;;;;;;;;;;;;0.74;70.38;98196.28;4917688;29;19955;-59
2023/01/26 13:39:52;;;;;;;;;;;;;;;0.68;71.02;98195.41;4916198;29;19966;-57
2023/01/26 13:42:20;;;;;;;;;;;;;;;0.87;70.02;98193.34;4911941;29;20391;-57
2023/01/26 13:44:49;;;;;;;;;;;;;;;0.69;71.21;98194.38;4912813;29;20273;-57
2023/01/26 13:47:20;;;;;;;;;;;;;;;0.91;69.87;98202.50;4915535;29;19942;-57
2023/01/26 13:49:49;;;;;;;;;;;;;;;0.58;70.71;98197.88;4898974;29;19931;-57
2023/01/26 13:52:19;;;;;;;;;;;;;;;0.53;70.69;98187.09;4915724;29;19999;-57
2023/01/26 13:54:47;;;;;;;;;;;;;;;0.64;71.29;98183.59;4909594;29;19928;-57
2023/01/26 13:57:20;;;;;;;;;;;;;;;0.42;71.20;98179.94;4912431;29;19974;-58
2023/01/26 13:59:49;;;;;;;;;;;;;;;0.65;70.94;98184.38;4898417;29;20243;-58
2023/01/26 14:02:24;;;;;;;;;;;;;;;0.59;71.28;98186.16;4913863;29;19942;-58
2023/01/26 14:04:54;;;;;;;;;;;;;;;0.65;70.65;98181.72;4915806;29;19927;-57
2023/01/26 14:07:23;;;;;;;;;;;;;;;0.45;70.60;98190.97;4910359;29;19928;-57
2023/01/26 14:09:52;;;;;;;;;;;;;;;0.45;70.72;98192.84;4909535;29;20428;-58
2023/01/26 14:12:22;;;;;;;;;;;;;;;0.32;71.00;98191.28;4889442;29;19966;-58
2023/01/26 14:14:53;;;;;;;;;;;;;;;0.20;71.93;98191.28;4914155;29;21433;-58
2023/01/26 14:17:27;;;;;;;;;;;;;;;0.32;71.64;98190.44;4914936;29;19927;-58
2023/01/26 14:19:55;;;;;;;;;;;;;;;0.27;71.59;98188.50;4913951;29;19958;-58
2023/01/26 14:22:23;;;;;;;;;;;;;;;0.32;71.21;98191.28;4913216;29;19927;-58
2023/01/26 14:24:51;;;;;;;;;;;;;;;0.18;70.78;98187.25;4914821;29;20425;-58
2023/01/26 14:27:28;;;;;;;;;;;;;;;0.14;70.55;98194.09;4896542;29;20385;-58
2023/01/26 14:29:56;;;;;;;;;;;;;;;0.32;70.85;98185.94;4925513;29;19983;-58
2023/01/26 14:32:28;;;;;;;;;;;;;;;0.39;70.33;98191.13;4910426;29;20026;-58
2023/01/26 14:34:59;;;;;;;;;;;;;;;0.45;70.35;98198.19;4910044;29;19942;-58
2023/01/26 14:37:27;;;;;;;;;;;;;;;0.23;70.83;98198.84;4913320;29;19931;-58
2023/01/26 14:40:14;;;;;;;;;;;;;;;0.18;71.36;98205.94;4915628;29;19934;-58
2023/01/26 14:42:42;;;;;;;;;;;;;;;0.18;71.54;98204.09;4914752;29;19927;-58
2023/01/26 14:45:11;;;;;;;;;;;;;;;0.32;71.02;98207.31;4898148;29;19931;-58
2023/01/26 14:47:40;;;;;;;;;;;;;;;0.04;71.83;98213.41;4911826;29;20411;-58
2023/01/26 14:50:11;;;;;;;;;;;;;;;0.44;70.99;98210.75;4915184;29;19927;-58
2023/01/26 14:52:41;;;;;;;;;;;;;;;0.20;72.17;98212.66;4911493;29;20396;-58
2023/01/26 14:55:11;;;;;;;;;;;;;;;0.39;71.04;98213.31;4915171;29;19927;-58
2023/01/26 14:57:39;;;;;;;;;;;;;;;0.45;71.02;98217.72;4920087;29;20368;-57
2023/01/26 15:00:18;;;;;;;;;;;;;;;0.52;70.91;98226.38;4899306;29;19950;-58
2023/01/26 15:02:47;;;;;;;;;;;;;;;0.52;71.02;98215.69;4906621;29;20379;-58
2023/01/26 15:05:18;;;;;;;;;;;;;;;0.62;70.94;98216.94;4915076;29;20291;-58
2023/01/26 15:07:46;;;;;;;;;;;;;;;0.71;70.59;98220.88;4913844;29;20371;-58
2023/01/26 15:10:28;;;;;;;;;;;;;;;0.81;70.16;98225.59;4897824;29;19934;-58
2023/01/26 15:12:57;;;;;;;;;;;;;;;0.77;69.81;98217.22;4899676;29;19927;-58
2023/01/26 15:15:26;;;;;;;;;;;;;;;0.57;70.73;98214.19;4914555;29;19927;-58
2023/01/26 15:18:01;;;;;;;;;;;;;;;0.72;70.79;98217.94;4914515;29;19938;-58
2023/01/26 15:20:40;;;;;;;;;;;;;;;0.86;70.39;98218.47;4910184;29;20034;-58
2023/01/26 15:23:22;;;;;;;;;;;;;;;0.70;70.99;98221.91;4914436;29;19989;-58